sensor_id;sensor_type;location;lat;lon;timestamp;P1;durP1;ratioP1;P2;durP2;ratioP2
38117;SDS011;23928;47.562;7.508;2022-08-19T00:00:19;4.87;;;4.43;;
38117;SDS011;23928;47.562;7.508;2022-08-19T00:02:45;4.17;;;3.77;;
38117;SDS011;23928;47.562;7.508;2022-08-19T00:05:12;4.20;;;3.67;;
38117;SDS011;23928;47.562;7.508;2022-08-19T00:07:39;5.40;;;4.00;;
38117;SDS011;23928;47.562;7.508;2022-08-19T00:10:11;5.00;;;3.80;;
38117;SDS011;23928;47.562;7.508;2022-08-19T00:12:39;5.97;;;4.90;;
38117;SDS011;23928;47.562;7.508;2022-08-19T00:15:06;4.87;;;4.40;;
38117;SDS011;23928;47.562;7.508;2022-08-19T00:17:36;4.87;;;4.33;;
38117;SDS011;23928;47.562;7.508;2022-08-19T00:20:06;4.73;;;4.23;;
38117;SDS011;23928;47.562;7.508;2022-08-19T00:22:32;5.37;;;3.53;;
38117;SDS011;23928;47.562;7.508;2022-08-19T00:24:58;4.73;;;3.40;;
38117;SDS011;23928;47.562;7.508;2022-08-19T00:27:24;6.57;;;4.03;;
38117;SDS011;23928;47.562;7.508;2022-08-19T00:29:50;4.53;;;4.13;;
38117;SDS011;23928;47.562;7.508;2022-08-19T00:32:16;5.13;;;3.90;;
38117;SDS011;23928;47.562;7.508;2022-08-19T00:34:42;4.70;;;3.50;;
38117;SDS011;23928;47.562;7.508;2022-08-19T00:37:08;3.70;;;3.40;;
38117;SDS011;23928;47.562;7.508;2022-08-19T00:39:34;4.03;;;3.60;;
38117;SDS011;23928;47.562;7.508;2022-08-19T00:42:00;4.20;;;3.80;;
38117;SDS011;23928;47.562;7.508;2022-08-19T00:44:27;3.83;;;3.50;;
38117;SDS011;23928;47.562;7.508;2022-08-19T00:46:55;5.37;;;3.73;;
38117;SDS011;23928;47.562;7.508;2022-08-19T00:52:23;4.17;;;3.30;;
38117;SDS011;23928;47.562;7.508;2022-08-19T00:54:56;4.43;;;3.30;;
38117;SDS011;23928;47.562;7.508;2022-08-19T00:57:29;3.80;;;3.20;;
38117;SDS011;23928;47.562;7.508;2022-08-19T00:59:58;3.27;;;2.97;;
38117;SDS011;23928;47.562;7.508;2022-08-19T01:02:25;4.07;;;3.50;;
38117;SDS011;23928;47.562;7.508;2022-08-19T01:04:52;4.57;;;3.33;;
38117;SDS011;23928;47.562;7.508;2022-08-19T01:07:18;3.97;;;3.57;;
38117;SDS011;23928;47.562;7.508;2022-08-19T01:09:44;3.50;;;3.20;;
38117;SDS011;23928;47.562;7.508;2022-08-19T01:12:10;3.53;;;3.23;;
38117;SDS011;23928;47.562;7.508;2022-08-19T01:14:36;4.27;;;3.60;;
38117;SDS011;23928;47.562;7.508;2022-08-19T01:17:05;4.80;;;3.97;;
38117;SDS011;23928;47.562;7.508;2022-08-19T01:19:35;4.20;;;3.80;;
38117;SDS011;23928;47.562;7.508;2022-08-19T01:22:15;7.57;;;3.80;;
38117;SDS011;23928;47.562;7.508;2022-08-19T01:24:42;7.37;;;4.07;;
38117;SDS011;23928;47.562;7.508;2022-08-19T01:27:08;5.27;;;4.50;;
38117;SDS011;23928;47.562;7.508;2022-08-19T01:29:34;5.40;;;4.47;;
38117;SDS011;23928;47.562;7.508;2022-08-19T01:32:03;5.10;;;4.60;;
38117;SDS011;23928;47.562;7.508;2022-08-19T01:34:29;5.33;;;4.83;;
38117;SDS011;23928;47.562;7.508;2022-08-19T01:36:55;4.90;;;4.40;;
38117;SDS011;23928;47.562;7.508;2022-08-19T01:39:22;5.10;;;4.60;;
38117;SDS011;23928;47.562;7.508;2022-08-19T01:41:49;5.10;;;4.60;;
38117;SDS011;23928;47.562;7.508;2022-08-19T01:44:19;4.73;;;4.30;;
38117;SDS011;23928;47.562;7.508;2022-08-19T01:46:49;5.67;;;4.67;;
38117;SDS011;23928;47.562;7.508;2022-08-19T01:49:17;5.00;;;4.50;;
38117;SDS011;23928;47.562;7.508;2022-08-19T01:51:46;4.73;;;4.23;;
38117;SDS011;23928;47.562;7.508;2022-08-19T01:54:13;4.60;;;4.20;;
38117;SDS011;23928;47.562;7.508;2022-08-19T01:56:40;5.13;;;4.20;;
38117;SDS011;23928;47.562;7.508;2022-08-19T01:59:08;6.10;;;4.13;;
38117;SDS011;23928;47.562;7.508;2022-08-19T02:01:38;4.63;;;4.23;;
38117;SDS011;23928;47.562;7.508;2022-08-19T02:04:03;7.27;;;5.00;;
38117;SDS011;23928;47.562;7.508;2022-08-19T02:06:30;5.07;;;4.57;;
38117;SDS011;23928;47.562;7.508;2022-08-19T02:08:57;6.50;;;4.97;;
38117;SDS011;23928;47.562;7.508;2022-08-19T02:11:30;6.97;;;4.73;;
38117;SDS011;23928;47.562;7.508;2022-08-19T02:13:58;5.07;;;4.57;;
38117;SDS011;23928;47.562;7.508;2022-08-19T02:16:29;6.60;;;3.97;;
38117;SDS011;23928;47.562;7.508;2022-08-19T02:18:55;4.33;;;3.93;;
38117;SDS011;23928;47.562;7.508;2022-08-19T02:21:22;6.47;;;4.73;;
38117;SDS011;23928;47.562;7.508;2022-08-19T02:23:48;5.13;;;4.07;;
38117;SDS011;23928;47.562;7.508;2022-08-19T02:26:15;4.70;;;4.30;;
38117;SDS011;23928;47.562;7.508;2022-08-19T02:28:41;4.37;;;3.97;;
38117;SDS011;23928;47.562;7.508;2022-08-19T02:31:11;4.40;;;4.00;;
38117;SDS011;23928;47.562;7.508;2022-08-19T02:33:42;6.43;;;4.40;;
38117;SDS011;23928;47.562;7.508;2022-08-19T02:36:08;5.10;;;4.10;;
38117;SDS011;23928;47.562;7.508;2022-08-19T02:38:35;5.77;;;4.00;;
38117;SDS011;23928;47.562;7.508;2022-08-19T02:41:24;6.63;;;4.40;;
38117;SDS011;23928;47.562;7.508;2022-08-19T02:43:50;4.03;;;3.67;;
38117;SDS011;23928;47.562;7.508;2022-08-19T02:46:20;5.17;;;3.57;;
38117;SDS011;23928;47.562;7.508;2022-08-19T02:48:48;5.37;;;3.70;;
38117;SDS011;23928;47.562;7.508;2022-08-19T02:51:20;4.20;;;3.80;;
38117;SDS011;23928;47.562;7.508;2022-08-19T02:53:50;4.80;;;4.30;;
38117;SDS011;23928;47.562;7.508;2022-08-19T02:56:16;5.07;;;4.13;;
38117;SDS011;23928;47.562;7.508;2022-08-19T02:58:42;6.77;;;4.70;;
38117;SDS011;23928;47.562;7.508;2022-08-19T03:01:08;4.73;;;3.97;;
38117;SDS011;23928;47.562;7.508;2022-08-19T03:03:35;6.27;;;3.87;;
38117;SDS011;23928;47.562;7.508;2022-08-19T03:06:06;4.97;;;4.40;;
38117;SDS011;23928;47.562;7.508;2022-08-19T03:08:37;4.73;;;4.27;;
38117;SDS011;23928;47.562;7.508;2022-08-19T03:11:04;5.00;;;4.50;;
38117;SDS011;23928;47.562;7.508;2022-08-19T03:13:30;7.27;;;5.00;;
38117;SDS011;23928;47.562;7.508;2022-08-19T03:15:56;4.40;;;4.00;;
38117;SDS011;23928;47.562;7.508;2022-08-19T03:18:22;6.20;;;4.27;;
38117;SDS011;23928;47.562;7.508;2022-08-19T03:20:49;6.03;;;4.73;;
38117;SDS011;23928;47.562;7.508;2022-08-19T03:23:17;6.27;;;5.03;;
38117;SDS011;23928;47.562;7.508;2022-08-19T03:25:44;4.80;;;4.30;;
38117;SDS011;23928;47.562;7.508;2022-08-19T03:28:12;5.67;;;3.90;;
38117;SDS011;23928;47.562;7.508;2022-08-19T03:30:39;5.07;;;4.57;;
38117;SDS011;23928;47.562;7.508;2022-08-19T03:33:08;11.17;;;5.20;;
38117;SDS011;23928;47.562;7.508;2022-08-19T03:35:35;5.17;;;4.70;;
38117;SDS011;23928;47.562;7.508;2022-08-19T03:38:04;5.10;;;4.47;;
38117;SDS011;23928;47.562;7.508;2022-08-19T03:40:31;5.93;;;4.57;;
38117;SDS011;23928;47.562;7.508;2022-08-19T03:42:59;7.13;;;4.90;;
38117;SDS011;23928;47.562;7.508;2022-08-19T03:45:25;6.87;;;4.80;;
38117;SDS011;23928;47.562;7.508;2022-08-19T03:47:52;6.43;;;4.80;;
38117;SDS011;23928;47.562;7.508;2022-08-19T03:50:18;5.60;;;5.10;;
38117;SDS011;23928;47.562;7.508;2022-08-19T03:52:47;5.30;;;4.20;;
38117;SDS011;23928;47.562;7.508;2022-08-19T03:55:17;4.97;;;4.50;;
38117;SDS011;23928;47.562;7.508;2022-08-19T03:57:43;5.53;;;4.67;;
38117;SDS011;23928;47.562;7.508;2022-08-19T04:00:10;4.67;;;4.27;;
38117;SDS011;23928;47.562;7.508;2022-08-19T04:02:37;5.43;;;4.60;;
38117;SDS011;23928;47.562;7.508;2022-08-19T04:05:02;5.70;;;5.10;;
38117;SDS011;23928;47.562;7.508;2022-08-19T04:07:28;5.77;;;5.17;;
38117;SDS011;23928;47.562;7.508;2022-08-19T04:09:53;5.70;;;5.20;;
38117;SDS011;23928;47.562;7.508;2022-08-19T04:12:19;4.40;;;4.00;;
38117;SDS011;23928;47.562;7.508;2022-08-19T04:14:45;5.40;;;4.90;;
38117;SDS011;23928;47.562;7.508;2022-08-19T04:17:11;5.23;;;4.83;;
38117;SDS011;23928;47.562;7.508;2022-08-19T04:19:38;5.30;;;4.60;;
38117;SDS011;23928;47.562;7.508;2022-08-19T04:22:06;5.20;;;4.70;;
38117;SDS011;23928;47.562;7.508;2022-08-19T04:24:32;4.83;;;4.43;;
38117;SDS011;23928;47.562;7.508;2022-08-19T04:27:02;5.40;;;4.90;;
38117;SDS011;23928;47.562;7.508;2022-08-19T04:29:30;5.30;;;4.40;;
38117;SDS011;23928;47.562;7.508;2022-08-19T04:31:56;5.00;;;4.50;;
38117;SDS011;23928;47.562;7.508;2022-08-19T04:34:23;8.00;;;5.23;;
38117;SDS011;23928;47.562;7.508;2022-08-19T04:36:51;5.80;;;5.20;;
38117;SDS011;23928;47.562;7.508;2022-08-19T04:39:21;5.90;;;5.40;;
38117;SDS011;23928;47.562;7.508;2022-08-19T04:42:10;5.27;;;4.77;;
38117;SDS011;23928;47.562;7.508;2022-08-19T04:44:55;5.17;;;4.67;;
38117;SDS011;23928;47.562;7.508;2022-08-19T04:47:21;6.27;;;4.50;;
38117;SDS011;23928;47.562;7.508;2022-08-19T04:49:47;5.13;;;4.73;;
38117;SDS011;23928;47.562;7.508;2022-08-19T04:52:13;6.40;;;5.70;;
38117;SDS011;23928;47.562;7.508;2022-08-19T04:54:39;5.60;;;4.70;;
38117;SDS011;23928;47.562;7.508;2022-08-19T04:57:05;4.93;;;4.43;;
38117;SDS011;23928;47.562;7.508;2022-08-19T04:59:33;5.17;;;4.70;;
38117;SDS011;23928;47.562;7.508;2022-08-19T05:02:00;4.77;;;4.37;;
38117;SDS011;23928;47.562;7.508;2022-08-19T05:04:25;5.27;;;4.77;;
38117;SDS011;23928;47.562;7.508;2022-08-19T05:06:53;5.27;;;4.43;;
38117;SDS011;23928;47.562;7.508;2022-08-19T05:09:19;4.90;;;4.50;;
38117;SDS011;23928;47.562;7.508;2022-08-19T05:11:46;5.53;;;4.70;;
38117;SDS011;23928;47.562;7.508;2022-08-19T05:14:13;5.87;;;4.90;;
38117;SDS011;23928;47.562;7.508;2022-08-19T05:16:39;6.40;;;5.17;;
38117;SDS011;23928;47.562;7.508;2022-08-19T05:19:04;10.50;;;6.23;;
38117;SDS011;23928;47.562;7.508;2022-08-19T05:21:49;6.20;;;5.60;;
38117;SDS011;23928;47.562;7.508;2022-08-19T05:24:46;6.53;;;5.93;;
38117;SDS011;23928;47.562;7.508;2022-08-19T05:27:12;6.67;;;5.80;;
38117;SDS011;23928;47.562;7.508;2022-08-19T05:29:38;6.63;;;5.83;;
38117;SDS011;23928;47.562;7.508;2022-08-19T05:32:04;7.03;;;6.37;;
38117;SDS011;23928;47.562;7.508;2022-08-19T05:34:33;7.37;;;6.67;;
38117;SDS011;23928;47.562;7.508;2022-08-19T05:37:01;8.40;;;6.97;;
38117;SDS011;23928;47.562;7.508;2022-08-19T05:39:29;8.47;;;6.53;;
38117;SDS011;23928;47.562;7.508;2022-08-19T05:41:59;8.57;;;7.20;;
38117;SDS011;23928;47.562;7.508;2022-08-19T05:44:29;7.80;;;7.00;;
38117;SDS011;23928;47.562;7.508;2022-08-19T05:47:00;7.60;;;6.90;;
38117;SDS011;23928;47.562;7.508;2022-08-19T05:49:28;8.00;;;7.20;;
38117;SDS011;23928;47.562;7.508;2022-08-19T05:51:54;7.70;;;7.00;;
38117;SDS011;23928;47.562;7.508;2022-08-19T05:54:21;9.37;;;8.47;;
38117;SDS011;23928;47.562;7.508;2022-08-19T05:56:48;7.90;;;7.10;;
38117;SDS011;23928;47.562;7.508;2022-08-19T05:59:15;8.83;;;7.57;;
38117;SDS011;23928;47.562;7.508;2022-08-19T06:01:42;8.77;;;7.87;;
38117;SDS011;23928;47.562;7.508;2022-08-19T06:04:11;8.27;;;7.47;;
38117;SDS011;23928;47.562;7.508;2022-08-19T06:06:38;9.63;;;8.20;;
38117;SDS011;23928;47.562;7.508;2022-08-19T06:09:05;9.17;;;8.27;;
38117;SDS011;23928;47.562;7.508;2022-08-19T06:11:46;9.00;;;8.10;;
38117;SDS011;23928;47.562;7.508;2022-08-19T06:14:15;10.10;;;8.23;;
38117;SDS011;23928;47.562;7.508;2022-08-19T06:16:44;10.20;;;8.40;;
38117;SDS011;23928;47.562;7.508;2022-08-19T06:19:12;9.43;;;8.53;;
38117;SDS011;23928;47.562;7.508;2022-08-19T06:21:41;8.17;;;7.33;;
38117;SDS011;23928;47.562;7.508;2022-08-19T06:24:09;9.17;;;8.00;;
38117;SDS011;23928;47.562;7.508;2022-08-19T06:26:38;8.93;;;8.03;;
38117;SDS011;23928;47.562;7.508;2022-08-19T06:29:05;9.43;;;7.80;;
38117;SDS011;23928;47.562;7.508;2022-08-19T06:31:32;9.00;;;8.10;;
38117;SDS011;23928;47.562;7.508;2022-08-19T06:34:02;9.93;;;8.40;;
38117;SDS011;23928;47.562;7.508;2022-08-19T06:36:31;9.10;;;8.20;;
38117;SDS011;23928;47.562;7.508;2022-08-19T06:39:03;10.00;;;8.30;;
38117;SDS011;23928;47.562;7.508;2022-08-19T06:41:31;9.30;;;8.30;;
38117;SDS011;23928;47.562;7.508;2022-08-19T06:44:00;9.97;;;8.83;;
38117;SDS011;23928;47.562;7.508;2022-08-19T06:46:26;10.07;;;8.93;;
38117;SDS011;23928;47.562;7.508;2022-08-19T06:48:53;9.53;;;8.43;;
38117;SDS011;23928;47.562;7.508;2022-08-19T06:51:19;9.77;;;8.70;;
38117;SDS011;23928;47.562;7.508;2022-08-19T06:53:47;8.57;;;7.73;;
38117;SDS011;23928;47.562;7.508;2022-08-19T06:56:14;10.37;;;9.17;;
38117;SDS011;23928;47.562;7.508;2022-08-19T06:58:42;12.03;;;9.77;;
38117;SDS011;23928;47.562;7.508;2022-08-19T07:01:08;11.17;;;9.20;;
38117;SDS011;23928;47.562;7.508;2022-08-19T07:03:34;10.50;;;8.93;;
38117;SDS011;23928;47.562;7.508;2022-08-19T07:06:11;12.90;;;10.63;;
38117;SDS011;23928;47.562;7.508;2022-08-19T07:08:42;12.20;;;9.70;;
38117;SDS011;23928;47.562;7.508;2022-08-19T07:11:10;11.53;;;10.03;;
38117;SDS011;23928;47.562;7.508;2022-08-19T07:13:38;9.80;;;8.87;;
38117;SDS011;23928;47.562;7.508;2022-08-19T07:16:07;10.87;;;9.77;;
38117;SDS011;23928;47.562;7.508;2022-08-19T07:18:34;11.17;;;10.07;;
38117;SDS011;23928;47.562;7.508;2022-08-19T07:21:05;11.57;;;10.20;;
38117;SDS011;23928;47.562;7.508;2022-08-19T07:23:33;13.83;;;10.90;;
38117;SDS011;23928;47.562;7.508;2022-08-19T07:26:05;10.07;;;9.07;;
38117;SDS011;23928;47.562;7.508;2022-08-19T07:28:35;11.23;;;9.97;;
38117;SDS011;23928;47.562;7.508;2022-08-19T07:31:04;11.73;;;10.53;;
38117;SDS011;23928;47.562;7.508;2022-08-19T07:33:31;11.80;;;10.10;;
38117;SDS011;23928;47.562;7.508;2022-08-19T07:35:57;11.13;;;10.00;;
38117;SDS011;23928;47.562;7.508;2022-08-19T07:38:23;13.87;;;10.47;;
38117;SDS011;23928;47.562;7.508;2022-08-19T07:40:49;12.40;;;10.70;;
38117;SDS011;23928;47.562;7.508;2022-08-19T07:43:16;10.93;;;9.83;;
38117;SDS011;23928;47.562;7.508;2022-08-19T07:45:49;11.37;;;10.27;;
38117;SDS011;23928;47.562;7.508;2022-08-19T07:48:22;11.73;;;10.53;;
38117;SDS011;23928;47.562;7.508;2022-08-19T07:50:51;14.27;;;11.47;;
38117;SDS011;23928;47.562;7.508;2022-08-19T07:53:18;12.00;;;10.73;;
38117;SDS011;23928;47.562;7.508;2022-08-19T07:55:44;12.20;;;10.97;;
38117;SDS011;23928;47.562;7.508;2022-08-19T07:58:11;12.40;;;10.80;;
38117;SDS011;23928;47.562;7.508;2022-08-19T08:00:38;12.77;;;10.80;;
38117;SDS011;23928;47.562;7.508;2022-08-19T08:03:05;12.87;;;11.50;;
38117;SDS011;23928;47.562;7.508;2022-08-19T08:05:31;12.40;;;11.10;;
38117;SDS011;23928;47.562;7.508;2022-08-19T08:08:15;13.50;;;11.53;;
38117;SDS011;23928;47.562;7.508;2022-08-19T08:11:10;12.80;;;11.03;;
38117;SDS011;23928;47.562;7.508;2022-08-19T08:13:37;12.27;;;10.90;;
38117;SDS011;23928;47.562;7.508;2022-08-19T08:16:03;15.40;;;11.80;;
38117;SDS011;23928;47.562;7.508;2022-08-19T08:18:30;13.73;;;11.63;;
38117;SDS011;23928;47.562;7.508;2022-08-19T08:20:56;14.97;;;11.17;;
38117;SDS011;23928;47.562;7.508;2022-08-19T08:23:22;13.23;;;11.23;;
38117;SDS011;23928;47.562;7.508;2022-08-19T08:25:52;12.20;;;11.00;;
38117;SDS011;23928;47.562;7.508;2022-08-19T08:28:20;13.10;;;11.67;;
38117;SDS011;23928;47.562;7.508;2022-08-19T08:30:47;13.37;;;11.90;;
38117;SDS011;23928;47.562;7.508;2022-08-19T08:33:19;13.77;;;11.60;;
38117;SDS011;23928;47.562;7.508;2022-08-19T08:35:48;12.50;;;11.17;;
38117;SDS011;23928;47.562;7.508;2022-08-19T08:38:14;12.60;;;11.30;;
38117;SDS011;23928;47.562;7.508;2022-08-19T08:40:45;13.63;;;11.43;;
38117;SDS011;23928;47.562;7.508;2022-08-19T08:43:21;17.07;;;10.83;;
38117;SDS011;23928;47.562;7.508;2022-08-19T08:46:10;11.43;;;10.33;;
38117;SDS011;23928;47.562;7.508;2022-08-19T08:51:52;14.13;;;12.00;;
38117;SDS011;23928;47.562;7.508;2022-08-19T08:54:17;13.10;;;11.60;;
38117;SDS011;23928;47.562;7.508;2022-08-19T08:56:45;13.67;;;12.13;;
38117;SDS011;23928;47.562;7.508;2022-08-19T08:59:21;14.77;;;12.73;;
38117;SDS011;23928;47.562;7.508;2022-08-19T09:01:49;14.13;;;12.63;;
38117;SDS011;23928;47.562;7.508;2022-08-19T09:04:15;14.23;;;12.03;;
38117;SDS011;23928;47.562;7.508;2022-08-19T09:09:30;13.70;;;12.20;;
38117;SDS011;23928;47.562;7.508;2022-08-19T09:14:45;14.93;;;12.30;;
38117;SDS011;23928;47.562;7.508;2022-08-19T09:17:25;17.43;;;13.83;;
38117;SDS011;23928;47.562;7.508;2022-08-19T09:22:21;14.90;;;12.97;;
38117;SDS011;23928;47.562;7.508;2022-08-19T09:24:51;13.87;;;12.37;;
38117;SDS011;23928;47.562;7.508;2022-08-19T09:27:20;15.20;;;12.57;;
38117;SDS011;23928;47.562;7.508;2022-08-19T09:29:48;14.27;;;12.40;;
38117;SDS011;23928;47.562;7.508;2022-08-19T09:32:15;14.33;;;12.83;;
38117;SDS011;23928;47.562;7.508;2022-08-19T09:34:42;14.77;;;12.03;;
38117;SDS011;23928;47.562;7.508;2022-08-19T09:37:08;13.57;;;11.67;;
38117;SDS011;23928;47.562;7.508;2022-08-19T09:39:34;15.40;;;13.27;;
38117;SDS011;23928;47.562;7.508;2022-08-19T09:41:59;14.50;;;12.90;;
38117;SDS011;23928;47.562;7.508;2022-08-19T09:44:25;15.57;;;13.87;;
38117;SDS011;23928;47.562;7.508;2022-08-19T09:46:51;17.23;;;13.53;;
38117;SDS011;23928;47.562;7.508;2022-08-19T09:49:17;14.83;;;13.23;;
38117;SDS011;23928;47.562;7.508;2022-08-19T09:51:44;14.40;;;12.80;;
38117;SDS011;23928;47.562;7.508;2022-08-19T09:54:14;13.40;;;12.07;;
38117;SDS011;23928;47.562;7.508;2022-08-19T09:56:39;18.67;;;14.87;;
38117;SDS011;23928;47.562;7.508;2022-08-19T09:59:05;17.20;;;14.27;;
38117;SDS011;23928;47.562;7.508;2022-08-19T10:01:31;15.53;;;13.53;;
38117;SDS011;23928;47.562;7.508;2022-08-19T10:03:58;18.03;;;15.20;;
38117;SDS011;23928;47.562;7.508;2022-08-19T10:06:26;18.90;;;15.17;;
38117;SDS011;23928;47.562;7.508;2022-08-19T10:08:58;18.33;;;14.90;;
38117;SDS011;23928;47.562;7.508;2022-08-19T10:11:24;18.20;;;14.43;;
38117;SDS011;23928;47.562;7.508;2022-08-19T10:13:51;17.20;;;15.33;;
38117;SDS011;23928;47.562;7.508;2022-08-19T10:16:19;20.07;;;15.93;;
38117;SDS011;23928;47.562;7.508;2022-08-19T10:18:47;17.43;;;15.23;;
38117;SDS011;23928;47.562;7.508;2022-08-19T10:21:15;18.47;;;16.03;;
38117;SDS011;23928;47.562;7.508;2022-08-19T10:23:44;18.43;;;16.27;;
38117;SDS011;23928;47.562;7.508;2022-08-19T10:26:13;17.23;;;14.03;;
38117;SDS011;23928;47.562;7.508;2022-08-19T10:28:40;19.27;;;16.53;;
38117;SDS011;23928;47.562;7.508;2022-08-19T10:31:07;21.60;;;17.37;;
38117;SDS011;23928;47.562;7.508;2022-08-19T10:33:35;18.47;;;16.30;;
38117;SDS011;23928;47.562;7.508;2022-08-19T10:36:09;19.73;;;17.30;;
38117;SDS011;23928;47.562;7.508;2022-08-19T10:38:42;20.60;;;16.97;;
38117;SDS011;23928;47.562;7.508;2022-08-19T10:41:14;23.00;;;17.97;;
38117;SDS011;23928;47.562;7.508;2022-08-19T10:43:45;19.57;;;17.47;;
38117;SDS011;23928;47.562;7.508;2022-08-19T10:46:14;22.40;;;17.63;;
38117;SDS011;23928;47.562;7.508;2022-08-19T10:48:41;22.13;;;18.10;;
38117;SDS011;23928;47.562;7.508;2022-08-19T10:51:08;20.63;;;16.83;;
38117;SDS011;23928;47.562;7.508;2022-08-19T10:53:53;18.20;;;16.30;;
38117;SDS011;23928;47.562;7.508;2022-08-19T10:56:20;19.57;;;16.97;;
38117;SDS011;23928;47.562;7.508;2022-08-19T10:59:05;24.40;;;18.10;;
38117;SDS011;23928;47.562;7.508;2022-08-19T11:01:31;18.00;;;15.53;;
38117;SDS011;23928;47.562;7.508;2022-08-19T11:03:59;23.97;;;16.53;;
38117;SDS011;23928;47.562;7.508;2022-08-19T11:06:26;17.33;;;15.43;;
38117;SDS011;23928;47.562;7.508;2022-08-19T11:08:55;19.77;;;16.87;;
38117;SDS011;23928;47.562;7.508;2022-08-19T11:11:21;20.07;;;17.97;;
38117;SDS011;23928;47.562;7.508;2022-08-19T11:13:47;17.87;;;15.97;;
38117;SDS011;23928;47.562;7.508;2022-08-19T11:16:19;17.87;;;15.57;;
38117;SDS011;23928;47.562;7.508;2022-08-19T11:18:49;19.47;;;16.93;;
38117;SDS011;23928;47.562;7.508;2022-08-19T11:21:28;19.37;;;16.87;;
38117;SDS011;23928;47.562;7.508;2022-08-19T11:23:57;19.20;;;16.97;;
38117;SDS011;23928;47.562;7.508;2022-08-19T11:26:26;18.03;;;16.17;;
38117;SDS011;23928;47.562;7.508;2022-08-19T11:28:54;19.10;;;16.80;;
38117;SDS011;23928;47.562;7.508;2022-08-19T11:31:21;18.93;;;16.87;;
38117;SDS011;23928;47.562;7.508;2022-08-19T11:33:50;20.87;;;17.50;;
38117;SDS011;23928;47.562;7.508;2022-08-19T11:36:19;23.40;;;16.87;;
38117;SDS011;23928;47.562;7.508;2022-08-19T11:38:46;20.10;;;16.80;;
38117;SDS011;23928;47.562;7.508;2022-08-19T11:41:15;18.93;;;17.03;;
38117;SDS011;23928;47.562;7.508;2022-08-19T11:43:43;18.37;;;16.37;;
38117;SDS011;23928;47.562;7.508;2022-08-19T11:46:14;20.10;;;17.03;;
38117;SDS011;23928;47.562;7.508;2022-08-19T11:48:41;19.60;;;16.37;;
38117;SDS011;23928;47.562;7.508;2022-08-19T11:51:11;19.40;;;17.40;;
38117;SDS011;23928;47.562;7.508;2022-08-19T11:53:40;18.87;;;16.97;;
38117;SDS011;23928;47.562;7.508;2022-08-19T11:56:06;18.50;;;16.53;;
38117;SDS011;23928;47.562;7.508;2022-08-19T11:58:33;19.33;;;16.20;;
38117;SDS011;23928;47.562;7.508;2022-08-19T12:01:00;21.83;;;15.77;;
38117;SDS011;23928;47.562;7.508;2022-08-19T12:03:26;17.70;;;15.87;;
38117;SDS011;23928;47.562;7.508;2022-08-19T12:05:52;17.23;;;15.43;;
38117;SDS011;23928;47.562;7.508;2022-08-19T12:08:18;17.83;;;15.80;;
38117;SDS011;23928;47.562;7.508;2022-08-19T12:10:44;18.17;;;15.97;;
38117;SDS011;23928;47.562;7.508;2022-08-19T12:13:10;15.77;;;13.87;;
38117;SDS011;23928;47.562;7.508;2022-08-19T12:15:43;18.50;;;14.50;;
38117;SDS011;23928;47.562;7.508;2022-08-19T12:18:10;15.97;;;14.33;;
38117;SDS011;23928;47.562;7.508;2022-08-19T12:20:38;16.53;;;14.83;;
38117;SDS011;23928;47.562;7.508;2022-08-19T12:23:06;17.70;;;14.57;;
38117;SDS011;23928;47.562;7.508;2022-08-19T12:25:34;16.80;;;15.00;;
38117;SDS011;23928;47.562;7.508;2022-08-19T12:28:01;16.93;;;15.23;;
38117;SDS011;23928;47.562;7.508;2022-08-19T12:30:27;15.43;;;13.90;;
38117;SDS011;23928;47.562;7.508;2022-08-19T12:32:53;14.07;;;12.73;;
38117;SDS011;23928;47.562;7.508;2022-08-19T12:35:19;15.43;;;13.83;;
38117;SDS011;23928;47.562;7.508;2022-08-19T12:37:45;17.80;;;14.73;;
38117;SDS011;23928;47.562;7.508;2022-08-19T12:40:14;18.57;;;15.73;;
38117;SDS011;23928;47.562;7.508;2022-08-19T12:42:41;17.63;;;15.73;;
38117;SDS011;23928;47.562;7.508;2022-08-19T12:45:10;19.47;;;17.37;;
38117;SDS011;23928;47.562;7.508;2022-08-19T12:47:38;25.60;;;18.77;;
38117;SDS011;23928;47.562;7.508;2022-08-19T12:50:04;19.80;;;17.57;;
38117;SDS011;23928;47.562;7.508;2022-08-19T12:52:33;21.27;;;18.00;;
38117;SDS011;23928;47.562;7.508;2022-08-19T12:55:02;20.67;;;18.47;;
38117;SDS011;23928;47.562;7.508;2022-08-19T12:57:29;20.60;;;18.40;;
38117;SDS011;23928;47.562;7.508;2022-08-19T12:59:58;20.47;;;18.47;;
38117;SDS011;23928;47.562;7.508;2022-08-19T13:02:32;18.60;;;16.70;;
38117;SDS011;23928;47.562;7.508;2022-08-19T13:04:59;20.30;;;18.20;;
38117;SDS011;23928;47.562;7.508;2022-08-19T13:07:25;21.37;;;19.07;;
38117;SDS011;23928;47.562;7.508;2022-08-19T13:09:51;20.47;;;18.40;;
38117;SDS011;23928;47.562;7.508;2022-08-19T13:12:17;22.57;;;20.20;;
38117;SDS011;23928;47.562;7.508;2022-08-19T13:14:45;22.87;;;20.67;;
38117;SDS011;23928;47.562;7.508;2022-08-19T13:17:15;19.10;;;17.10;;
38117;SDS011;23928;47.562;7.508;2022-08-19T13:19:41;23.30;;;19.03;;
38117;SDS011;23928;47.562;7.508;2022-08-19T13:22:07;18.57;;;16.77;;
38117;SDS011;23928;47.562;7.508;2022-08-19T13:24:32;17.90;;;16.00;;
38117;SDS011;23928;47.562;7.508;2022-08-19T13:26:59;20.13;;;18.13;;
38117;SDS011;23928;47.562;7.508;2022-08-19T13:29:25;21.33;;;19.03;;
38117;SDS011;23928;47.562;7.508;2022-08-19T13:32:09;25.47;;;22.67;;
38117;SDS011;23928;47.562;7.508;2022-08-19T13:34:53;22.63;;;20.37;;
38117;SDS011;23928;47.562;7.508;2022-08-19T13:37:19;22.57;;;20.27;;
38117;SDS011;23928;47.562;7.508;2022-08-19T13:40:05;21.50;;;19.33;;
38117;SDS011;23928;47.562;7.508;2022-08-19T13:42:31;27.13;;;23.33;;
38117;SDS011;23928;47.562;7.508;2022-08-19T13:44:57;19.87;;;17.87;;
38117;SDS011;23928;47.562;7.508;2022-08-19T13:47:23;26.27;;;23.63;;
38117;SDS011;23928;47.562;7.508;2022-08-19T13:49:49;28.43;;;24.70;;
38117;SDS011;23928;47.562;7.508;2022-08-19T13:52:15;24.13;;;21.60;;
38117;SDS011;23928;47.562;7.508;2022-08-19T13:54:40;21.07;;;18.93;;
38117;SDS011;23928;47.562;7.508;2022-08-19T13:57:06;21.60;;;19.40;;
38117;SDS011;23928;47.562;7.508;2022-08-19T13:59:32;23.93;;;21.37;;
38117;SDS011;23928;47.562;7.508;2022-08-19T14:01:58;23.00;;;20.63;;
38117;SDS011;23928;47.562;7.508;2022-08-19T14:04:25;23.33;;;20.93;;
38117;SDS011;23928;47.562;7.508;2022-08-19T14:06:50;19.73;;;17.83;;
38117;SDS011;23928;47.562;7.508;2022-08-19T14:09:16;20.53;;;18.63;;
38117;SDS011;23928;47.562;7.508;2022-08-19T14:11:41;22.23;;;18.77;;
38117;SDS011;23928;47.562;7.508;2022-08-19T14:14:07;19.53;;;17.53;;
38117;SDS011;23928;47.562;7.508;2022-08-19T14:16:33;19.97;;;17.87;;
38117;SDS011;23928;47.562;7.508;2022-08-19T14:18:58;18.67;;;16.77;;
38117;SDS011;23928;47.562;7.508;2022-08-19T14:21:24;19.10;;;17.23;;
38117;SDS011;23928;47.562;7.508;2022-08-19T14:23:50;16.73;;;15.03;;
38117;SDS011;23928;47.562;7.508;2022-08-19T14:26:17;15.30;;;13.80;;
38117;SDS011;23928;47.562;7.508;2022-08-19T14:28:44;13.20;;;11.90;;
38117;SDS011;23928;47.562;7.508;2022-08-19T14:31:11;9.73;;;8.87;;
38117;SDS011;23928;47.562;7.508;2022-08-19T14:33:41;8.80;;;8.03;;
38117;SDS011;23928;47.562;7.508;2022-08-19T14:36:07;9.80;;;8.83;;
38117;SDS011;23928;47.562;7.508;2022-08-19T14:38:33;9.13;;;8.20;;
38117;SDS011;23928;47.562;7.508;2022-08-19T14:41:13;10.20;;;9.20;;
38117;SDS011;23928;47.562;7.508;2022-08-19T14:43:42;12.50;;;11.30;;
38117;SDS011;23928;47.562;7.508;2022-08-19T14:46:10;12.60;;;11.40;;
38117;SDS011;23928;47.562;7.508;2022-08-19T14:48:37;13.13;;;11.73;;
38117;SDS011;23928;47.562;7.508;2022-08-19T14:51:03;13.63;;;12.23;;
38117;SDS011;23928;47.562;7.508;2022-08-19T14:53:30;14.00;;;12.60;;